Time,TemperatureF,DewpointF,PressureIn,WindDirection,WindDirectionDegrees,WindSpeedMPH,WindSpeedGustMPH,Humidity,HourlyPrecipIn,Conditions,Clouds,dailyrainin,SoftwareType,DateUTC
2013-01-26 00:00:00,11.6,8.5,30.10,South,181,0.0,0.0,87,0.00,,CLR,0.00,VWS V14.01,2013-01-26 05:00:00,
2013-01-26 00:02:00,11.5,8.4,30.10,South,181,0.0,0.0,87,0.00,,CLR,0.00,VWS V14.01,2013-01-26 05:02:00,
2013-01-26 00:07:00,11.4,8.3,30.10,South,181,0.0,0.0,87,0.00,,CLR,0.00,VWS V14.01,2013-01-26 05:07:00,
2013-01-26 00:12:00,11.2,8.1,30.10,South,181,0.0,0.0,87,0.00,,CLR,0.00,VWS V14.01,2013-01-26 05:12:00,
2013-01-26 00:17:00,10.9,7.5,30.10,South,181,0.0,0.0,86,0.00,,CLR,0.00,VWS V14.01,2013-01-26 05:17:00,
2013-01-26 00:22:00,10.7,7.3,30.10,South,181,0.0,0.0,86,0.00,,CLR,0.00,VWS V14.01,2013-01-26 05:22:00,
2013-01-26 00:27:00,10.5,7.2,30.10,South,181,0.0,0.0,86,0.00,,CLR,0.00,VWS V14.01,2013-01-26 05:27:00,
2013-01-26 00:32:00,10.3,6.9,30.09,South,181,0.0,0.0,86,0.00,,CLR,0.00,VWS V14.01,2013-01-26 05:32:00,
2013-01-26 00:37:00,10.1,7.0,30.10,South,181,0.0,0.0,87,0.00,,CLR,0.00,VWS V14.01,2013-01-26 05:37:00,
2013-01-26 00:42:00,10.0,6.9,30.10,South,181,0.0,0.0,87,0.00,,CLR,0.00,VWS V14.01,2013-01-26 05:42:00,
2013-01-26 00:47:00,9.9,6.8,30.10,South,181,0.0,0.0,87,0.00,,CLR,0.00,VWS V14.01,2013-01-26 05:47:00,
2013-01-26 00:52:00,9.8,6.7,30.10,South,181,0.0,0.0,87,0.00,,CLR,0.00,VWS V14.01,2013-01-26 05:52:00,
2013-01-26 00:57:00,9.7,6.6,30.10,South,181,0.0,0.0,87,0.00,,CLR,0.00,VWS V14.01,2013-01-26 05:57:00,
2013-01-26 01:02:00,9.6,6.5,30.10,South,181,0.0,0.0,87,0.00,,CLR,0.00,VWS V14.01,2013-01-26 06:02:00,
2013-01-26 01:07:00,9.6,6.5,30.10,South,181,0.0,0.0,87,0.00,,CLR,0.00,VWS V14.01,2013-01-26 06:07:00,
2013-01-26 01:12:00,9.6,6.5,30.10,South,181,0.0,0.0,87,0.00,,CLR,0.00,VWS V14.01,2013-01-26 06:12:00,
2013-01-26 01:17:00,9.5,6.4,30.10,South,181,0.0,0.0,87,0.00,,CLR,0.00,VWS V14.01,2013-01-26 06:17:00,
2013-01-26 01:22:00,9.4,6.3,30.10,South,181,0.0,0.0,87,0.00,,CLR,0.00,VWS V14.01,2013-01-26 06:22:00,
2013-01-26 01:27:00,9.4,6.3,30.10,South,181,0.0,0.0,87,0.00,,CLR,0.00,VWS V14.01,2013-01-26 06:27:00,
2013-01-26 01:32:00,9.3,6.2,30.10,South,181,0.0,0.0,87,0.00,,CLR,0.00,VWS V14.01,2013-01-26 06:32:00,
2013-01-26 01:37:00,9.2,6.1,30.10,South,181,0.0,1.0,87,0.00,,CLR,0.00,VWS V14.01,2013-01-26 06:37:00,
2013-01-26 01:42:00,9.3,6.5,30.10,West,259,1.0,2.0,88,0.00,,CLR,0.00,VWS V14.01,2013-01-26 06:42:00,
2013-01-26 01:47:00,9.3,6.2,30.10,West,259,0.0,2.0,87,0.00,,CLR,0.00,VWS V14.01,2013-01-26 06:47:00,
2013-01-26 01:52:00,9.3,6.2,30.10,NNW,334,0.0,2.0,87,0.00,,CLR,0.00,VWS V14.01,2013-01-26 06:52:00,
2013-01-26 01:57:00,9.3,6.2,30.10,NNW,334,1.0,2.0,87,0.00,,CLR,0.00,VWS V14.01,2013-01-26 06:57:00,
2013-01-26 02:02:00,9.4,6.6,30.09,West,277,2.0,3.0,88,0.00,,CLR,0.00,VWS V14.01,2013-01-26 07:02:00,
2013-01-26 02:07:00,9.6,7.0,30.09,NW,313,0.0,3.0,89,0.00,,CLR,0.00,VWS V14.01,2013-01-26 07:07:00,
2013-01-26 02:12:00,9.7,7.1,30.09,NW,312,0.0,3.0,89,0.00,,CLR,0.00,VWS V14.01,2013-01-26 07:12:00,
2013-01-26 02:17:00,9.8,7.0,30.09,NW,312,0.0,3.0,88,0.00,,CLR,0.00,VWS V14.01,2013-01-26 07:17:00,
2013-01-26 02:22:00,9.7,6.9,30.09,NW,312,0.0,3.0,88,0.00,,CLR,0.00,VWS V14.01,2013-01-26 07:22:00,
2013-01-26 02:27:00,9.6,6.8,30.08,NW,312,0.0,3.0,88,0.00,,CLR,0.00,VWS V14.01,2013-01-26 07:27:00,
2013-01-26 02:32:00,9.5,6.4,30.08,NW,312,0.0,0.0,87,0.00,,CLR,0.00,VWS V14.01,2013-01-26 07:32:00,
2013-01-26 02:37:00,9.4,6.3,30.08,NW,312,0.0,0.0,87,0.00,,CLR,0.00,VWS V14.01,2013-01-26 07:37:00,
2013-01-26 02:42:00,9.3,6.2,30.08,NW,312,0.0,1.0,87,0.00,,CLR,0.00,VWS V14.01,2013-01-26 07:42:00,
2013-01-26 02:47:00,9.2,6.4,30.09,NW,312,0.0,1.0,88,0.00,,CLR,0.00,VWS V14.01,2013-01-26 07:47:00,
2013-01-26 02:52:00,9.2,6.4,30.08,NW,312,0.0,1.0,88,0.00,,CLR,0.00,VWS V14.01,2013-01-26 07:52:00,
2013-01-26 02:57:00,9.3,6.5,30.08,NW,312,0.0,1.0,88,0.00,,CLR,0.00,VWS V14.01,2013-01-26 07:57:00,
2013-01-26 03:02:00,9.8,7.2,30.08,West,278,1.0,3.0,89,0.00,,CLR,0.00,VWS V14.01,2013-01-26 08:02:00,
2013-01-26 03:07:00,10.4,8.1,30.08,West,279,2.0,3.0,90,0.00,,CLR,0.00,VWS V14.01,2013-01-26 08:07:00,
2013-01-26 03:12:00,11.5,9.4,30.08,West,277,2.0,4.0,91,0.00,,CLR,0.00,VWS V14.01,2013-01-26 08:12:00,
2013-01-26 03:17:00,12.0,9.9,30.08,WNW,303,2.0,4.0,91,0.00,,CLR,0.00,VWS V14.01,2013-01-26 08:17:00,
2013-01-26 03:22:00,12.2,9.8,30.08,NW,308,1.0,4.0,90,0.00,,CLR,0.00,VWS V14.01,2013-01-26 08:22:00,
2013-01-26 03:27:00,12.3,9.7,30.08,NW,311,1.0,4.0,89,0.00,,CLR,0.00,VWS V14.01,2013-01-26 08:27:00,
2013-01-26 03:32:00,12.5,9.9,30.08,NW,320,2.0,3.0,89,0.00,,CLR,0.00,VWS V14.01,2013-01-26 08:32:00,
2013-01-26 03:38:00,13.1,10.7,30.08,NW,312,4.0,5.0,90,0.00,,CLR,0.00,VWS V14.01,2013-01-26 08:38:00,
2013-01-26 03:43:00,13.3,10.7,30.08,NW,315,1.0,5.0,89,0.00,,CLR,0.00,VWS V14.01,2013-01-26 08:43:00,
2013-01-26 03:48:00,13.2,10.3,30.08,NW,325,1.0,5.0,88,0.00,,CLR,0.00,VWS V14.01,2013-01-26 08:48:00,
2013-01-26 03:53:00,13.2,10.1,30.08,NW,314,1.0,5.0,87,0.00,,CLR,0.00,VWS V14.01,2013-01-26 08:53:00,
2013-01-26 03:58:00,13.0,9.9,30.08,NW,309,1.0,5.0,87,0.00,,CLR,0.00,VWS V14.01,2013-01-26 08:58:00,
2013-01-26 04:03:00,12.9,9.8,30.08,NW,309,2.0,2.0,87,0.00,,CLR,0.00,VWS V14.01,2013-01-26 09:03:00,
2013-01-26 04:08:00,13.0,10.1,30.08,NNW,327,2.0,3.0,88,0.00,,CLR,0.00,VWS V14.01,2013-01-26 09:08:00,
2013-01-26 04:13:00,12.9,9.8,30.09,NW,311,2.0,3.0,87,0.00,,CLR,0.00,VWS V14.01,2013-01-26 09:13:00,
2013-01-26 04:18:00,12.8,9.7,30.09,NW,304,1.0,3.0,87,0.00,,CLR,0.00,VWS V14.01,2013-01-26 09:18:00,
2013-01-26 04:23:00,12.6,9.5,30.09,WNW,303,0.0,3.0,87,0.00,,CLR,0.00,VWS V14.01,2013-01-26 09:23:00,
2013-01-26 04:28:00,12.5,9.4,30.09,WNW,302,2.0,3.0,87,0.00,,CLR,0.00,VWS V14.01,2013-01-26 09:28:00,
2013-01-26 04:33:00,12.6,9.7,30.09,NW,309,0.0,4.0,88,0.00,,CLR,0.00,VWS V14.01,2013-01-26 09:33:00,
2013-01-26 04:38:00,13.2,10.6,30.09,WNW,293,2.0,5.0,89,0.00,,CLR,0.00,VWS V14.01,2013-01-26 09:38:00,
2013-01-26 04:43:00,14.0,11.4,30.10,West,273,1.0,5.0,89,0.00,,CLR,0.00,VWS V14.01,2013-01-26 09:43:00,
2013-01-26 04:48:00,14.4,11.5,30.10,WNW,287,1.0,5.0,88,0.00,,CLR,0.00,VWS V14.01,2013-01-26 09:48:00,
2013-01-26 04:53:00,14.7,11.5,30.10,West,275,2.0,5.0,87,0.00,,CLR,0.00,VWS V14.01,2013-01-26 09:53:00,
2013-01-26 04:58:00,14.8,11.4,30.11,WNW,293,1.0,5.0,86,0.00,,CLR,0.00,VWS V14.01,2013-01-26 09:58:00,
2013-01-26 05:03:00,14.9,11.5,30.11,WNW,292,2.0,3.0,86,0.00,,CLR,0.00,VWS V14.01,2013-01-26 10:03:00,
2013-01-26 05:08:00,15.0,11.6,30.11,NW,322,2.0,5.0,86,0.00,,CLR,0.00,VWS V14.01,2013-01-26 10:08:00,
2013-01-26 05:13:00,15.1,11.7,30.11,West,265,1.0,5.0,86,0.00,,CLR,0.00,VWS V14.01,2013-01-26 10:13:00,
2013-01-26 05:18:00,15.2,11.8,30.11,WNW,298,1.0,5.0,86,0.00,,CLR,0.00,VWS V14.01,2013-01-26 10:18:00,
2013-01-26 05:23:00,15.2,11.5,30.11,NW,326,4.0,5.0,85,0.00,,CLR,0.00,VWS V14.01,2013-01-26 10:23:00,
2013-01-26 05:28:00,15.2,11.5,30.11,NW,306,1.0,5.0,85,0.00,,CLR,0.00,VWS V14.01,2013-01-26 10:28:00,
2013-01-26 05:33:00,15.2,11.5,30.11,West,275,0.0,3.0,85,0.00,,CLR,0.00,VWS V14.01,2013-01-26 10:33:00,
2013-01-26 05:38:00,15.1,11.4,30.12,NNW,338,0.0,3.0,85,0.00,,CLR,0.00,VWS V14.01,2013-01-26 10:38:00,
2013-01-26 05:43:00,15.1,11.4,30.12,NNW,338,1.0,3.0,85,0.00,,CLR,0.00,VWS V14.01,2013-01-26 10:43:00,
2013-01-26 05:48:00,15.1,11.4,30.12,NW,309,1.0,3.0,85,0.00,,CLR,0.00,VWS V14.01,2013-01-26 10:48:00,
2013-01-26 05:53:00,15.1,11.4,30.12,NW,309,0.0,3.0,85,0.00,,CLR,0.00,VWS V14.01,2013-01-26 10:53:00,
2013-01-26 05:58:00,15.2,11.8,30.12,WNW,294,1.0,3.0,86,0.00,,CLR,0.00,VWS V14.01,2013-01-26 10:58:00,
2013-01-26 06:03:00,15.3,11.6,30.12,WNW,298,1.0,1.0,85,0.00,,BKN090,0.00,VWS V14.01,2013-01-26 11:03:00,
2013-01-26 06:08:00,15.5,12.1,30.12,WNW,297,0.0,2.0,86,0.00,,BKN090,0.00,VWS V14.01,2013-01-26 11:08:00,
2013-01-26 06:13:00,15.6,11.9,30.12,NW,310,1.0,3.0,85,0.00,,BKN090,0.00,VWS V14.01,2013-01-26 11:13:00,
2013-01-26 06:18:00,15.6,11.9,30.13,NW,308,2.0,3.0,85,0.00,,BKN090,0.00,VWS V14.01,2013-01-26 11:18:00,
2013-01-26 06:23:00,15.7,12.0,30.13,NW,321,0.0,3.0,85,0.00,,BKN090,0.00,VWS V14.01,2013-01-26 11:23:00,
2013-01-26 06:28:00,15.9,12.2,30.14,NW,309,2.0,5.0,85,0.00,,BKN090,0.00,VWS V14.01,2013-01-26 11:28:00,
2013-01-26 06:33:00,16.1,11.9,30.14,WNW,289,2.0,2.0,83,0.00,,BKN090,0.00,VWS V14.01,2013-01-26 11:33:00,
2013-01-26 06:38:00,16.1,11.9,30.14,NW,313,0.0,2.0,83,0.00,,BKN090,0.00,VWS V14.01,2013-01-26 11:38:00,
2013-01-26 06:43:00,16.2,12.0,30.14,WNW,298,0.0,3.0,83,0.00,,BKN090,0.00,VWS V14.01,2013-01-26 11:43:00,
2013-01-26 06:48:00,16.3,12.1,30.14,NW,304,1.0,3.0,83,0.00,,BKN090,0.00,VWS V14.01,2013-01-26 11:48:00,
2013-01-26 06:53:00,16.4,11.9,30.14,WNW,293,0.0,3.0,82,0.00,,BKN090,0.00,VWS V14.01,2013-01-26 11:53:00,
2013-01-26 06:58:00,16.4,11.9,30.15,NW,321,1.0,3.0,82,0.00,,BKN090,0.00,VWS V14.01,2013-01-26 11:58:00,
2013-01-26 07:04:00,16.4,11.9,30.15,NW,324,3.0,4.0,82,0.00,,OVC090,0.00,VWS V14.01,2013-01-26 12:04:00,
2013-01-26 07:09:00,16.4,11.9,30.15,NNW,327,2.0,4.0,82,0.00,,OVC090,0.00,VWS V14.01,2013-01-26 12:09:00,
2013-01-26 07:14:00,16.5,12.0,30.16,WNW,292,1.0,4.0,82,0.00,,OVC090,0.00,VWS V14.01,2013-01-26 12:14:00,
2013-01-26 07:19:00,16.6,11.8,30.16,West,278,2.0,4.0,81,0.00,,OVC090,0.00,VWS V14.01,2013-01-26 12:19:00,
2013-01-26 07:24:00,16.6,11.8,30.16,WSW,258,1.0,4.0,81,0.00,,OVC090,0.00,VWS V14.01,2013-01-26 12:24:00,
2013-01-26 07:29:00,16.6,12.1,30.16,NW,321,2.0,4.0,82,0.00,,OVC090,0.00,VWS V14.01,2013-01-26 12:29:00,
2013-01-26 07:34:00,16.7,12.2,30.16,NW,321,0.0,2.0,82,0.00,,OVC090,0.00,VWS V14.01,2013-01-26 12:34:00,
2013-01-26 07:39:00,16.7,12.2,30.17,WNW,303,1.0,4.0,82,0.00,,OVC090,0.00,VWS V14.01,2013-01-26 12:39:00,
2013-01-26 07:44:00,16.8,12.0,30.17,WNW,292,2.0,4.0,81,0.00,,OVC090,0.00,VWS V14.01,2013-01-26 12:44:00,
2013-01-26 07:49:00,16.9,12.1,30.17,WNW,292,1.0,4.0,81,0.00,,OVC090,0.00,VWS V14.01,2013-01-26 12:49:00,
2013-01-26 07:54:00,17.0,12.2,30.17,WNW,294,3.0,5.0,81,0.00,,OVC090,0.00,VWS V14.01,2013-01-26 12:54:00,
2013-01-26 07:59:00,17.1,12.0,30.17,NW,316,4.0,5.0,80,0.00,,OVC090,0.00,VWS V14.01,2013-01-26 12:59:00,
2013-01-26 08:04:00,17.2,12.1,30.17,West,277,3.0,6.0,80,0.00,,OVC095,0.00,VWS V14.01,2013-01-26 13:04:00,
2013-01-26 08:09:00,17.3,12.2,30.18,NW,318,0.0,6.0,80,0.00,,OVC095,0.00,VWS V14.01,2013-01-26 13:09:00,
2013-01-26 08:14:00,17.5,12.1,30.18,WNW,288,1.0,6.0,79,0.00,,OVC095,0.00,VWS V14.01,2013-01-26 13:14:00,
2013-01-26 08:19:00,17.9,12.5,30.18,NW,325,3.0,6.0,79,0.00,,OVC095,0.00,VWS V14.01,2013-01-26 13:19:00,
2013-01-26 08:24:00,18.3,12.9,30.18,NW,304,3.0,6.0,79,0.00,,OVC095,0.00,VWS V14.01,2013-01-26 13:24:00,
2013-01-26 08:29:00,18.8,12.8,30.18,NNW,331,4.0,7.0,77,0.00,,OVC095,0.00,VWS V14.01,2013-01-26 13:29:00,
2013-01-26 08:34:00,19.1,12.8,30.18,NNW,346,4.0,10.0,76,0.00,,OVC095,0.00,VWS V14.01,2013-01-26 13:34:00,
2013-01-26 08:39:00,19.7,13.1,30.18,WNW,285,3.0,10.0,75,0.00,,OVC095,0.00,VWS V14.01,2013-01-26 13:39:00,
2013-01-26 08:44:00,20.1,13.2,30.18,North,355,4.0,10.0,74,0.00,,OVC095,0.00,VWS V14.01,2013-01-26 13:44:00,
2013-01-26 08:49:00,20.7,12.8,30.18,NW,315,3.0,10.0,71,0.00,,OVC095,0.00,VWS V14.01,2013-01-26 13:49:00,
2013-01-26 08:54:00,21.2,13.6,30.18,West,259,4.0,10.0,72,0.00,,OVC095,0.00,VWS V14.01,2013-01-26 13:54:00,
2013-01-26 08:59:00,21.8,13.2,30.18,NW,322,4.0,11.0,69,0.00,,OVC095,0.00,VWS V14.01,2013-01-26 13:59:00,
2013-01-26 09:04:00,22.5,13.6,30.19,WNW,297,3.0,9.0,68,0.00,,OVC095,0.00,VWS V14.01,2013-01-26 14:04:00,
2013-01-26 09:09:00,23.1,13.8,30.19,WNW,298,2.0,10.0,67,0.00,,OVC095,0.00,VWS V14.01,2013-01-26 14:09:00,
2013-01-26 09:14:00,23.9,14.2,30.18,West,277,3.0,10.0,66,0.00,,OVC095,0.00,VWS V14.01,2013-01-26 14:14:00,
2013-01-26 09:19:00,23.6,13.6,30.19,NW,310,4.0,10.0,65,0.00,,OVC095,0.00,VWS V14.01,2013-01-26 14:19:00,
2013-01-26 09:24:00,23.2,12.8,30.19,WNW,282,8.0,10.0,64,0.01,,OVC095,0.01,VWS V14.01,2013-01-26 14:24:00,
2013-01-26 09:29:00,22.8,13.2,30.19,WNW,297,3.0,10.0,66,0.01,,OVC095,0.01,VWS V14.01,2013-01-26 14:29:00,
2013-01-26 09:34:00,22.7,13.1,30.19,WNW,285,3.0,9.0,66,0.01,,OVC095,0.01,VWS V14.01,2013-01-26 14:34:00,
2013-01-26 09:39:00,22.4,12.1,30.19,NW,319,6.0,9.0,64,0.01,,OVC095,0.01,VWS V14.01,2013-01-26 14:39:00,
2013-01-26 09:44:00,22.6,12.3,30.20,West,279,6.0,10.0,64,0.01,,OVC095,0.01,VWS V14.01,2013-01-26 14:44:00,
2013-01-26 09:49:00,22.9,12.9,30.20,NNW,331,2.0,10.0,65,0.01,,OVC095,0.01,VWS V14.01,2013-01-26 14:49:00,
2013-01-26 09:54:00,23.4,13.0,30.19,NW,315,1.0,10.0,64,0.01,,OVC095,0.01,VWS V14.01,2013-01-26 14:54:00,
2013-01-26 09:59:00,24.0,13.2,30.19,West,265,3.0,10.0,63,0.01,,OVC095,0.01,VWS V14.01,2013-01-26 14:59:00,
2013-01-26 10:04:00,24.4,13.6,30.20,WNW,287,2.0,10.0,63,0.01,,OVC095,0.01,VWS V14.01,2013-01-26 15:04:00,
2013-01-26 10:09:00,24.9,13.4,30.19,NW,305,7.0,10.0,61,0.02,,OVC095,0.02,VWS V14.01,2013-01-26 15:09:00,
2013-01-26 10:14:00,25.5,13.9,30.19,West,267,6.0,11.0,61,0.02,,OVC095,0.02,VWS V14.01,2013-01-26 15:14:00,
2013-01-26 10:19:00,26.0,14.4,30.19,NW,313,4.0,11.0,61,0.02,,OVC095,0.02,VWS V14.01,2013-01-26 15:19:00,
2013-01-26 10:24:00,26.3,14.7,30.19,WNW,294,5.0,11.0,61,0.02,,OVC095,0.02,VWS V14.01,2013-01-26 15:24:00,
2013-01-26 10:29:00,26.3,13.9,30.19,NW,322,6.0,11.0,59,0.02,,OVC095,0.02,VWS V14.01,2013-01-26 15:29:00,
2013-01-26 10:34:00,26.2,13.1,30.20,North,355,5.0,15.0,57,0.01,,OVC095,0.02,VWS V14.01,2013-01-26 15:34:00,
2013-01-26 10:39:00,26.2,14.2,30.20,NNW,327,4.0,15.0,60,0.01,,OVC095,0.02,VWS V14.01,2013-01-26 15:39:00,
2013-01-26 10:45:00,26.6,13.4,30.20,NW,310,6.0,15.0,57,0.01,,OVC095,0.02,VWS V14.01,2013-01-26 15:45:00,
2013-01-26 10:50:00,26.3,13.1,30.20,NNW,330,5.0,15.0,57,0.01,,OVC095,0.02,VWS V14.01,2013-01-26 15:50:00,
2013-01-26 10:55:00,26.3,13.1,30.20,NW,316,3.0,15.0,57,0.01,,OVC095,0.02,VWS V14.01,2013-01-26 15:55:00,
2013-01-26 11:00:00,25.4,11.9,30.20,WNW,294,3.0,8.0,56,0.01,,OVC100,0.02,VWS V14.01,2013-01-26 16:00:00,
2013-01-26 11:05:00,25.4,13.1,30.20,WNW,297,4.0,10.0,59,0.01,,OVC100,0.02,VWS V14.01,2013-01-26 16:05:00,
2013-01-26 11:10:00,25.9,13.2,30.20,WNW,296,5.0,10.0,58,0.01,,OVC100,0.02,VWS V14.01,2013-01-26 16:10:00,
2013-01-26 11:15:00,26.1,12.2,30.21,NNW,328,11.0,11.0,55,0.01,,OVC100,0.02,VWS V14.01,2013-01-26 16:15:00,
2013-01-26 11:20:00,25.8,11.9,30.21,WNW,300,7.0,15.0,55,0.01,,OVC100,0.02,VWS V14.01,2013-01-26 16:20:00,
2013-01-26 11:25:00,25.6,11.7,30.21,NW,316,14.0,15.0,55,0.01,,OVC100,0.02,VWS V14.01,2013-01-26 16:25:00,
2013-01-26 11:30:00,25.4,11.1,30.21,NW,306,3.0,4.0,54,0.00,,OVC100,0.02,VWS V14.01,2013-01-26 16:30:00,
2013-01-26 11:35:00,25.3,11.8,30.21,NW,321,7.0,12.0,56,0.00,,OVC100,0.02,VWS V14.01,2013-01-26 16:35:00,
2013-01-26 11:40:00,25.6,11.7,30.21,NW,316,12.0,13.0,55,0.00,,OVC100,0.02,VWS V14.01,2013-01-26 16:40:00,
2013-01-26 11:45:00,25.5,11.2,30.21,NNE,22,5.0,14.0,54,0.00,,OVC100,0.02,VWS V14.01,2013-01-26 16:45:00,
2013-01-26 11:50:00,25.8,11.9,30.21,West,279,5.0,14.0,55,0.00,,OVC100,0.02,VWS V14.01,2013-01-26 16:50:00,
2013-01-26 11:55:00,26.6,12.2,30.20,NW,306,3.0,14.0,54,0.00,,OVC100,0.02,VWS V14.01,2013-01-26 16:55:00,
2013-01-26 12:00:00,27.8,12.0,30.20,WNW,296,5.0,5.0,51,0.00,,OVC100,0.02,VWS V14.01,2013-01-26 17:00:00,
2013-01-26 12:05:00,28.6,12.3,30.19,NW,310,5.0,11.0,50,0.00,,OVC100,0.02,VWS V14.01,2013-01-26 17:05:00,
2013-01-26 12:10:00,28.9,12.6,30.19,NW,319,12.0,12.0,50,0.00,,OVC100,0.02,VWS V14.01,2013-01-26 17:10:00,
2013-01-26 12:15:00,29.2,12.4,30.19,NNW,331,5.0,12.0,49,0.00,,OVC100,0.02,VWS V14.01,2013-01-26 17:15:00,
2013-01-26 12:20:00,29.5,12.7,30.18,WNW,292,1.0,12.0,49,0.00,,OVC100,0.02,VWS V14.01,2013-01-26 17:20:00,
2013-01-26 12:25:00,29.7,11.9,30.18,West,273,3.0,14.0,47,0.00,,OVC100,0.02,VWS V14.01,2013-01-26 17:25:00,
2013-01-26 12:30:00,29.4,12.1,30.17,NW,317,9.0,10.0,48,0.00,,OVC100,0.02,VWS V14.01,2013-01-26 17:30:00,
2013-01-26 12:35:00,29.9,12.6,30.18,NW,317,7.0,10.0,48,0.00,,OVC100,0.02,VWS V14.01,2013-01-26 17:35:00,
2013-01-26 12:40:00,29.9,12.6,30.18,NNW,329,3.0,11.0,48,0.01,,OVC100,0.03,VWS V14.01,2013-01-26 17:40:00,
2013-01-26 12:45:00,30.1,12.8,30.17,NNW,337,1.0,11.0,48,0.01,,OVC100,0.03,VWS V14.01,2013-01-26 17:45:00,
2013-01-26 12:50:00,30.8,13.0,30.17,NW,323,3.0,11.0,47,0.01,,OVC100,0.03,VWS V14.01,2013-01-26 17:50:00,
2013-01-26 12:55:00,31.3,12.9,30.17,SW,229,4.0,11.0,46,0.01,,OVC100,0.03,VWS V14.01,2013-01-26 17:55:00,
2013-01-26 13:00:00,31.1,12.8,30.16,SW,232,4.0,7.0,46,0.01,,CLR,0.03,VWS V14.01,2013-01-26 18:00:00,
2013-01-26 13:05:00,31.0,12.2,30.16,WNW,298,5.0,9.0,45,0.01,,CLR,0.03,VWS V14.01,2013-01-26 18:05:00,
2013-01-26 13:10:00,30.8,11.5,30.16,West,279,6.0,10.0,44,0.01,,CLR,0.03,VWS V14.01,2013-01-26 18:10:00,
2013-01-26 13:16:00,30.5,11.7,30.17,WNW,297,4.0,10.0,45,0.01,,CLR,0.03,VWS V14.01,2013-01-26 18:16:00,
2013-01-26 13:21:00,30.7,11.9,30.17,NW,310,6.0,12.0,45,0.01,,CLR,0.03,VWS V14.01,2013-01-26 18:21:00,
2013-01-26 13:26:00,30.3,12.0,30.18,NW,311,5.0,15.0,46,0.01,,CLR,0.03,VWS V14.01,2013-01-26 18:26:00,
2013-01-26 13:31:00,29.5,10.8,30.18,WNW,297,8.0,8.0,45,0.01,,CLR,0.03,VWS V14.01,2013-01-26 18:31:00,
2013-01-26 13:36:00,29.9,11.6,30.17,WNW,286,10.0,11.0,46,0.01,,CLR,0.03,VWS V14.01,2013-01-26 18:36:00,
2013-01-26 13:41:00,29.8,11.1,30.17,WSW,247,2.0,12.0,45,0.01,,CLR,0.03,VWS V14.01,2013-01-26 18:41:00,
2013-01-26 13:46:00,29.6,10.9,30.17,NW,322,16.0,16.0,45,0.01,,CLR,0.03,VWS V14.01,2013-01-26 18:46:00,
2013-01-26 13:51:00,30.2,11.9,30.17,WNW,301,7.0,16.0,46,0.01,,CLR,0.03,VWS V14.01,2013-01-26 18:51:00,
2013-01-26 13:56:00,30.7,11.4,30.17,WNW,288,5.0,16.0,44,0.01,,CLR,0.03,VWS V14.01,2013-01-26 18:56:00,
2013-01-26 14:01:00,31.1,11.2,30.17,WNW,290,8.0,10.0,43,0.00,,CLR,0.03,VWS V14.01,2013-01-26 19:01:00,
2013-01-26 14:06:00,31.4,10.4,30.17,WNW,298,9.0,10.0,41,0.00,,CLR,0.03,VWS V14.01,2013-01-26 19:06:00,
2013-01-26 14:11:00,30.9,11.1,30.17,NNW,336,4.0,13.0,43,0.00,,CLR,0.03,VWS V14.01,2013-01-26 19:11:00,
2013-01-26 14:16:00,31.1,11.8,30.17,West,280,5.0,13.0,44,0.00,,CLR,0.03,VWS V14.01,2013-01-26 19:16:00,
2013-01-26 14:21:00,31.0,11.1,30.17,WNW,293,8.0,16.0,43,0.00,,CLR,0.03,VWS V14.01,2013-01-26 19:21:00,
2013-01-26 14:26:00,31.4,12.0,30.18,WNW,288,5.0,16.0,44,0.00,,CLR,0.03,VWS V14.01,2013-01-26 19:26:00,
2013-01-26 14:31:00,31.6,11.2,30.17,NW,304,6.0,10.0,42,0.00,,CLR,0.03,VWS V14.01,2013-01-26 19:31:00,
2013-01-26 14:36:00,31.6,11.7,30.17,NW,319,5.0,10.0,43,0.00,,CLR,0.03,VWS V14.01,2013-01-26 19:36:00,
2013-01-26 14:41:00,31.9,11.4,30.18,WNW,302,7.0,13.0,42,0.00,,CLR,0.03,VWS V14.01,2013-01-26 19:41:00,
2013-01-26 14:46:00,32.0,10.4,30.18,NW,309,5.0,13.0,40,0.00,,CLR,0.03,VWS V14.01,2013-01-26 19:46:00,
2013-01-26 14:51:00,32.2,10.6,30.18,NW,316,10.0,13.0,40,0.00,,CLR,0.03,VWS V14.01,2013-01-26 19:51:00,
2013-01-26 14:56:00,31.7,10.1,30.18,West,271,5.0,14.0,40,0.00,,CLR,0.03,VWS V14.01,2013-01-26 19:56:00,
2013-01-26 15:01:00,31.7,10.7,30.19,NW,311,8.0,8.0,41,0.00,,CLR,0.03,VWS V14.01,2013-01-26 20:01:00,
2013-01-26 15:06:00,31.5,10.0,30.19,SW,232,7.0,16.0,40,0.00,,CLR,0.03,VWS V14.01,2013-01-26 20:06:00,
2013-01-26 15:11:00,31.2,10.8,30.19,NW,306,4.0,16.0,42,0.00,,CLR,0.03,VWS V14.01,2013-01-26 20:11:00,
2013-01-26 15:16:00,31.5,11.1,30.19,WNW,299,5.0,16.0,42,0.00,,CLR,0.03,VWS V14.01,2013-01-26 20:16:00,
2013-01-26 15:21:00,31.1,10.7,30.20,NW,308,4.0,17.0,42,0.00,,CLR,0.03,VWS V14.01,2013-01-26 20:21:00,
2013-01-26 15:26:00,31.3,10.3,30.20,WNW,302,8.0,17.0,41,0.00,,CLR,0.03,VWS V14.01,2013-01-26 20:26:00,
2013-01-26 15:31:00,31.1,10.2,30.20,WNW,287,7.0,14.0,41,0.00,,CLR,0.03,VWS V14.01,2013-01-26 20:31:00,
2013-01-26 15:36:00,30.9,10.0,30.20,NW,306,11.0,14.0,41,0.00,,CLR,0.03,VWS V14.01,2013-01-26 20:36:00,
2013-01-26 15:41:00,30.7,9.8,30.20,West,268,4.0,19.0,41,0.00,,CLR,0.03,VWS V14.01,2013-01-26 20:41:00,
2013-01-26 15:46:00,30.5,10.2,30.20,WNW,301,6.0,19.0,42,0.00,,CLR,0.03,VWS V14.01,2013-01-26 20:46:00,
2013-01-26 15:51:00,30.3,10.0,30.20,WNW,295,2.0,19.0,42,0.00,,CLR,0.03,VWS V14.01,2013-01-26 20:51:00,
2013-01-26 15:56:00,29.8,10.1,30.21,West,278,3.0,19.0,43,0.00,,CLR,0.03,VWS V14.01,2013-01-26 20:56:00,
2013-01-26 16:01:00,29.3,10.1,30.21,NW,324,5.0,9.0,44,0.00,,CLR,0.03,VWS V14.01,2013-01-26 21:01:00,
2013-01-26 16:06:00,28.8,9.6,30.21,West,275,4.0,11.0,44,0.00,,CLR,0.03,VWS V14.01,2013-01-26 21:06:00,
2013-01-26 16:11:00,28.7,9.6,30.21,NW,319,4.0,11.0,44,0.00,,CLR,0.03,VWS V14.01,2013-01-26 21:11:00,
2013-01-26 16:16:00,28.6,10.5,30.21,North,355,6.0,12.0,46,0.00,,CLR,0.03,VWS V14.01,2013-01-26 21:16:00,
2013-01-26 16:21:00,28.5,10.4,30.20,West,267,7.0,12.0,46,0.00,,CLR,0.03,VWS V14.01,2013-01-26 21:21:00,
2013-01-26 16:26:00,28.4,9.8,30.20,WNW,300,5.0,12.0,45,0.00,,CLR,0.03,VWS V14.01,2013-01-26 21:26:00,
2013-01-26 16:31:00,28.3,9.7,30.20,NW,310,3.0,11.0,45,0.00,,CLR,0.03,VWS V14.01,2013-01-26 21:31:00,
2013-01-26 16:36:00,28.1,10.0,30.21,West,278,3.0,11.0,46,0.00,,CLR,0.03,VWS V14.01,2013-01-26 21:36:00,
2013-01-26 16:41:00,27.9,9.8,30.21,WNW,301,3.0,11.0,46,0.00,,CLR,0.03,VWS V14.01,2013-01-26 21:41:00,
2013-01-26 16:46:00,27.6,9.5,30.21,West,279,2.0,11.0,46,0.00,,CLR,0.03,VWS V14.01,2013-01-26 21:46:00,
2013-01-26 16:51:00,27.5,9.4,30.22,WNW,288,5.0,11.0,46,0.00,,CLR,0.03,VWS V14.01,2013-01-26 21:51:00,
2013-01-26 16:56:00,27.3,9.7,30.22,NW,308,3.0,13.0,47,0.00,,CLR,0.03,VWS V14.01,2013-01-26 21:56:00,
2013-01-26 17:01:00,27.0,9.0,30.23,NW,309,7.0,14.0,46,0.00,,CLR,0.03,VWS V14.01,2013-01-26 22:01:00,
2013-01-26 17:06:00,26.9,9.4,30.23,West,279,5.0,14.0,47,0.00,,CLR,0.03,VWS V14.01,2013-01-26 22:06:00,
2013-01-26 17:11:00,26.7,9.2,30.23,NW,305,5.0,14.0,47,0.00,,CLR,0.03,VWS V14.01,2013-01-26 22:11:00,
2013-01-26 17:17:00,26.4,8.9,30.24,NW,323,4.0,14.0,47,0.00,,CLR,0.03,VWS V14.01,2013-01-26 22:17:00,
2013-01-26 17:22:00,26.3,8.8,30.24,NW,323,3.0,14.0,47,0.00,,CLR,0.03,VWS V14.01,2013-01-26 22:22:00,
2013-01-26 17:27:00,26.1,9.1,30.25,NW,319,6.0,14.0,48,0.00,,CLR,0.03,VWS V14.01,2013-01-26 22:27:00,
2013-01-26 17:32:00,26.1,10.0,30.25,NW,317,5.0,9.0,50,0.00,,CLR,0.03,VWS V14.01,2013-01-26 22:32:00,
2013-01-26 17:37:00,26.1,9.1,30.25,North,355,7.0,12.0,48,0.00,,CLR,0.03,VWS V14.01,2013-01-26 22:37:00,
2013-01-26 17:42:00,25.9,8.9,30.26,NW,317,8.0,13.0,48,0.00,,CLR,0.03,VWS V14.01,2013-01-26 22:42:00,
2013-01-26 17:47:00,25.7,8.7,30.25,WNW,298,5.0,13.0,48,0.00,,CLR,0.03,VWS V14.01,2013-01-26 22:47:00,
2013-01-26 17:52:00,25.5,9.0,30.26,NW,305,3.0,14.0,49,0.00,,CLR,0.03,VWS V14.01,2013-01-26 22:52:00,
2013-01-26 17:57:00,25.3,8.8,30.27,NNW,348,5.0,14.0,49,0.00,,CLR,0.03,VWS V14.01,2013-01-26 22:57:00,
2013-01-26 18:02:00,25.1,9.1,30.27,NNW,342,4.0,6.0,50,0.00,,CLR,0.03,VWS V14.01,2013-01-26 23:02:00,
2013-01-26 18:07:00,25.0,9.0,30.27,WNW,291,7.0,9.0,50,0.00,,CLR,0.03,VWS V14.01,2013-01-26 23:07:00,
2013-01-26 18:12:00,24.8,9.2,30.28,NW,311,4.0,9.0,51,0.00,,CLR,0.03,VWS V14.01,2013-01-26 23:12:00,
2013-01-26 18:17:00,24.7,9.2,30.28,NW,311,4.0,10.0,51,0.00,,CLR,0.03,VWS V14.01,2013-01-26 23:17:00,
2013-01-26 18:22:00,24.6,9.1,30.28,NW,321,2.0,10.0,51,0.00,,CLR,0.03,VWS V14.01,2013-01-26 23:22:00,
2013-01-26 18:27:00,24.5,9.0,30.28,WNW,294,3.0,10.0,51,0.00,,CLR,0.03,VWS V14.01,2013-01-26 23:27:00,
2013-01-26 18:32:00,24.4,8.9,30.28,NW,313,4.0,7.0,51,0.00,,CLR,0.03,VWS V14.01,2013-01-26 23:32:00,
2013-01-26 18:37:00,24.2,9.1,30.29,WNW,294,3.0,8.0,52,0.00,,CLR,0.03,VWS V14.01,2013-01-26 23:37:00,
2013-01-26 18:42:00,24.1,9.0,30.29,NW,326,5.0,8.0,52,0.00,,CLR,0.03,VWS V14.01,2013-01-26 23:42:00,
2013-01-26 18:47:00,24.0,8.9,30.29,WNW,302,4.0,8.0,52,0.00,,CLR,0.03,VWS V14.01,2013-01-26 23:47:00,
2013-01-26 18:52:00,23.9,9.3,30.29,NNW,332,3.0,10.0,53,0.00,,CLR,0.03,VWS V14.01,2013-01-26 23:52:00,
2013-01-26 18:57:00,23.8,9.6,30.29,NW,304,5.0,10.0,54,0.00,,CLR,0.03,VWS V14.01,2013-01-26 23:57:00,
2013-01-26 19:02:00,23.7,9.5,30.29,NW,323,3.0,5.0,54,0.00,,CLR,0.03,VWS V14.01,2013-01-27 00:02:00,
2013-01-26 19:07:00,23.6,9.4,30.30,NW,304,3.0,8.0,54,0.00,,CLR,0.03,VWS V14.01,2013-01-27 00:07:00,
2013-01-26 19:12:00,23.7,9.9,30.30,NW,313,4.0,8.0,55,0.00,,CLR,0.03,VWS V14.01,2013-01-27 00:12:00,
2013-01-26 19:17:00,23.8,9.6,30.30,WNW,292,3.0,10.0,54,0.00,,CLR,0.03,VWS V14.01,2013-01-27 00:17:00,
2013-01-26 19:22:00,23.6,9.4,30.31,WNW,289,5.0,10.0,54,0.00,,CLR,0.03,VWS V14.01,2013-01-27 00:22:00,
2013-01-26 19:27:00,23.3,9.5,30.31,NW,322,8.0,10.0,55,0.00,,CLR,0.03,VWS V14.01,2013-01-27 00:27:00,
2013-01-26 19:32:00,23.1,9.4,30.32,NW,314,1.0,6.0,55,0.00,,CLR,0.03,VWS V14.01,2013-01-27 00:32:00,
2013-01-26 19:37:00,23.0,9.2,30.32,NW,323,5.0,7.0,55,0.00,,CLR,0.03,VWS V14.01,2013-01-27 00:37:00,
2013-01-26 19:42:00,22.9,9.2,30.32,NW,319,3.0,7.0,55,0.00,,CLR,0.03,VWS V14.01,2013-01-27 00:42:00,
2013-01-26 19:47:00,22.7,9.4,30.32,WNW,303,6.0,8.0,56,0.00,,CLR,0.03,VWS V14.01,2013-01-27 00:47:00,
2013-01-26 19:52:00,22.8,9.5,30.32,NW,313,4.0,11.0,56,0.00,,CLR,0.03,VWS V14.01,2013-01-27 00:52:00,
2013-01-26 19:57:00,22.9,9.6,30.32,WNW,292,4.0,11.0,56,0.00,,CLR,0.03,VWS V14.01,2013-01-27 00:57:00,
2013-01-26 20:02:00,23.0,9.2,30.32,NW,319,3.0,6.0,55,0.00,,CLR,0.03,VWS V14.01,2013-01-27 01:02:00,
2013-01-26 20:07:00,22.9,9.2,30.32,West,281,4.0,8.0,55,0.00,,CLR,0.03,VWS V14.01,2013-01-27 01:07:00,
2013-01-26 20:12:00,22.9,9.6,30.33,NNW,327,2.0,8.0,56,0.00,,CLR,0.03,VWS V14.01,2013-01-27 01:12:00,
2013-01-26 20:17:00,22.8,9.5,30.33,NW,316,3.0,8.0,56,0.00,,CLR,0.03,VWS V14.01,2013-01-27 01:17:00,
2013-01-26 20:22:00,22.6,9.3,30.33,NW,306,3.0,8.0,56,0.00,,CLR,0.03,VWS V14.01,2013-01-27 01:22:00,
2013-01-26 20:27:00,22.5,9.6,30.33,NW,309,3.0,8.0,57,0.00,,CLR,0.03,VWS V14.01,2013-01-27 01:27:00,
2013-01-26 20:32:00,22.4,9.5,30.34,West,273,4.0,6.0,57,0.00,,CLR,0.03,VWS V14.01,2013-01-27 01:32:00,
2013-01-26 20:37:00,22.5,9.6,30.34,NW,316,2.0,7.0,57,0.00,,CLR,0.03,VWS V14.01,2013-01-27 01:37:00,
2013-01-26 20:42:00,22.3,9.4,30.34,NW,306,2.0,7.0,57,0.00,,CLR,0.03,VWS V14.01,2013-01-27 01:42:00,
2013-01-26 20:47:00,22.2,9.3,30.34,NW,320,3.0,7.0,57,0.00,,CLR,0.03,VWS V14.01,2013-01-27 01:47:00,
2013-01-26 20:52:00,22.0,9.1,30.34,NW,321,2.0,7.0,57,0.00,,CLR,0.03,VWS V14.01,2013-01-27 01:52:00,
2013-01-26 20:57:00,21.8,9.3,30.35,NW,317,2.0,7.0,58,0.00,,CLR,0.03,VWS V14.01,2013-01-27 01:57:00,
2013-01-26 21:03:00,21.8,9.3,30.35,West,273,3.0,5.0,58,0.00,,CLR,0.03,VWS V14.01,2013-01-27 02:03:00,
2013-01-26 21:08:00,21.9,9.4,30.35,NNW,332,3.0,6.0,58,0.00,,CLR,0.03,VWS V14.01,2013-01-27 02:08:00,
2013-01-26 21:13:00,22.0,9.5,30.35,NW,311,4.0,7.0,58,0.00,,CLR,0.03,VWS V14.01,2013-01-27 02:13:00,
2013-01-26 21:18:00,21.9,9.4,30.36,NW,314,3.0,8.0,58,0.00,,CLR,0.03,VWS V14.01,2013-01-27 02:18:00,
2013-01-26 21:23:00,21.8,9.3,30.36,NW,311,2.0,8.0,58,0.00,,CLR,0.03,VWS V14.01,2013-01-27 02:23:00,
2013-01-26 21:28:00,21.7,9.2,30.36,NNW,327,4.0,8.0,58,0.00,,CLR,0.03,VWS V14.01,2013-01-27 02:28:00,
2013-01-26 21:33:00,21.5,9.0,30.36,NW,307,5.0,6.0,58,0.00,,CLR,0.03,VWS V14.01,2013-01-27 02:33:00,
2013-01-26 21:38:00,21.5,9.4,30.36,West,276,1.0,6.0,59,0.00,,CLR,0.03,VWS V14.01,2013-01-27 02:38:00,
2013-01-26 21:43:00,21.4,9.3,30.37,NW,311,4.0,6.0,59,0.00,,CLR,0.03,VWS V14.01,2013-01-27 02:43:00,
2013-01-26 21:48:00,21.3,9.2,30.37,NW,317,1.0,6.0,59,0.00,,CLR,0.03,VWS V14.01,2013-01-27 02:48:00,
2013-01-26 21:53:00,21.4,9.3,30.37,WNW,289,2.0,6.0,59,0.00,,CLR,0.03,VWS V14.01,2013-01-27 02:53:00,
2013-01-26 21:58:00,21.4,8.9,30.37,NNW,342,6.0,8.0,58,0.00,,CLR,0.03,VWS V14.01,2013-01-27 02:58:00,
2013-01-26 22:03:00,21.4,8.9,30.37,NW,322,2.0,5.0,58,0.00,,CLR,0.03,VWS V14.01,2013-01-27 03:03:00,
2013-01-26 22:08:00,21.3,8.8,30.38,West,267,2.0,7.0,58,0.00,,CLR,0.03,VWS V14.01,2013-01-27 03:08:00,
2013-01-26 22:13:00,21.3,9.2,30.38,NW,309,6.0,7.0,59,0.00,,CLR,0.03,VWS V14.01,2013-01-27 03:13:00,
2013-01-26 22:18:00,21.2,9.1,30.38,WNW,294,2.0,7.0,59,0.00,,CLR,0.03,VWS V14.01,2013-01-27 03:18:00,
2013-01-26 22:23:00,21.2,9.1,30.39,NW,314,1.0,7.0,59,0.00,,CLR,0.03,VWS V14.01,2013-01-27 03:23:00,
2013-01-26 22:28:00,21.1,9.0,30.39,WNW,297,1.0,7.0,59,0.00,,CLR,0.03,VWS V14.01,2013-01-27 03:28:00,
2013-01-26 22:33:00,20.9,8.8,30.39,NW,306,3.0,4.0,59,0.00,,CLR,0.03,VWS V14.01,2013-01-27 03:33:00,
2013-01-26 22:38:00,20.8,9.1,30.39,NW,314,2.0,5.0,60,0.00,,CLR,0.03,VWS V14.01,2013-01-27 03:38:00,
2013-01-26 22:43:00,20.7,9.0,30.40,NW,320,2.0,5.0,60,0.00,,CLR,0.03,VWS V14.01,2013-01-27 03:43:00,
2013-01-26 22:48:00,20.4,8.7,30.39,NW,316,2.0,5.0,60,0.00,,CLR,0.03,VWS V14.01,2013-01-27 03:48:00,
2013-01-26 22:53:00,20.2,8.9,30.40,NW,316,2.0,5.0,61,0.00,,CLR,0.03,VWS V14.01,2013-01-27 03:53:00,
2013-01-26 22:58:00,20.1,9.2,30.40,WNW,299,2.0,5.0,62,0.00,,CLR,0.03,VWS V14.01,2013-01-27 03:58:00,
2013-01-26 23:03:00,20.1,9.5,30.40,WNW,299,2.0,2.0,63,0.00,,CLR,0.03,VWS V14.01,2013-01-27 04:03:00,
2013-01-26 23:08:00,20.1,9.5,30.40,WNW,299,1.0,2.0,63,0.00,,CLR,0.03,VWS V14.01,2013-01-27 04:08:00,
2013-01-26 23:13:00,20.0,9.1,30.40,WNW,284,1.0,4.0,62,0.00,,CLR,0.03,VWS V14.01,2013-01-27 04:13:00,
2013-01-26 23:18:00,20.0,9.4,30.40,WNW,298,0.0,4.0,63,0.00,,CLR,0.03,VWS V14.01,2013-01-27 04:18:00,
2013-01-26 23:23:00,19.9,9.7,30.40,NW,306,0.0,4.0,64,0.00,,CLR,0.03,VWS V14.01,2013-01-27 04:23:00,
2013-01-26 23:28:00,19.6,9.8,30.41,NW,306,0.0,4.0,65,0.00,,CLR,0.03,VWS V14.01,2013-01-27 04:28:00,
2013-01-26 23:33:00,19.3,9.5,30.41,NW,306,1.0,2.0,65,0.00,,CLR,0.03,VWS V14.01,2013-01-27 04:33:00,
2013-01-26 23:38:00,18.9,9.1,30.41,WNW,293,2.0,3.0,65,0.00,,CLR,0.03,VWS V14.01,2013-01-27 04:38:00,
2013-01-26 23:43:00,18.8,9.3,30.41,WNW,283,0.0,3.0,66,0.00,,CLR,0.03,VWS V14.01,2013-01-27 04:43:00,
2013-01-26 23:48:00,18.6,9.1,30.41,West,272,1.0,3.0,66,0.00,,CLR,0.03,VWS V14.01,2013-01-27 04:48:00,
2013-01-26 23:53:00,18.4,9.0,30.41,WNW,296,1.0,3.0,66,0.00,,CLR,0.03,VWS V14.01,2013-01-27 04:53:00,
2013-01-26 23:58:00,18.1,9.0,30.41,WNW,296,2.0,3.0,67,0.00,,CLR,0.03,VWS V14.01,2013-01-27 04:58:00,